createdAt,value
2023-02-06T00:02:45.104Z,36.72
2023-02-06T00:06:57.780Z,35.03
2023-02-06T00:11:14.719Z,30.57
2023-02-06T00:15:28.259Z,29.96
2023-02-06T00:19:41.096Z,30.34
2023-02-06T00:24:00.652Z,31.27
2023-02-06T00:28:15.562Z,33.84
2023-02-06T00:32:28.014Z,35.68
2023-02-06T00:36:40.563Z,35.93
2023-02-06T00:40:53.534Z,36.39
2023-02-06T00:45:06.516Z,36.40
2023-02-06T00:49:19.127Z,35.41
2023-02-06T00:53:31.542Z,35.92
2023-02-06T00:57:43.917Z,37.09
2023-02-06T01:01:56.448Z,37.72
2023-02-06T01:06:09.409Z,38.45
2023-02-06T01:10:22.169Z,38.79
2023-02-06T01:14:34.440Z,38.38
2023-02-06T01:18:47.409Z,36.08
2023-02-06T01:22:59.857Z,33.02
2023-02-06T01:27:12.187Z,33.81
2023-02-06T01:31:30.090Z,33.51
2023-02-06T01:35:42.400Z,35.19
2023-02-06T01:39:54.761Z,36.70
2023-02-06T01:44:24.363Z,36.01
2023-02-06T01:48:54.265Z,36.76
2023-02-06T01:53:08.009Z,37.92
2023-02-06T01:57:21.535Z,38.03
2023-02-06T02:01:34.497Z,38.30
2023-02-06T02:05:51.010Z,38.46
2023-02-06T02:10:05.343Z,39.27
2023-02-06T02:14:18.418Z,40.23
2023-02-06T02:19:08.655Z,39.55
2023-02-06T02:23:48.027Z,39.77
2023-02-06T02:28:49.758Z,39.59
2023-02-06T02:33:11.016Z,36.08
2023-02-06T02:37:36.180Z,34.12
2023-02-06T02:41:57.389Z,31.83
2023-02-06T02:46:29.316Z,31.24
2023-02-06T02:50:43.189Z,30.09
2023-02-06T02:54:56.141Z,30.10
2023-02-06T02:59:24.081Z,31.13
2023-02-06T03:03:40.685Z,30.94
2023-02-06T03:08:08.152Z,30.78
2023-02-06T03:12:35.746Z,30.02
2023-02-06T03:16:53.065Z,29.81
2023-02-06T03:21:08.855Z,30.20
2023-02-06T03:25:32.248Z,30.11
2023-02-06T03:29:47.674Z,30.80
2023-02-06T03:34:08.280Z,31.16
2023-02-06T03:38:21.001Z,31.63
2023-02-06T03:42:36.124Z,31.58
2023-02-06T03:46:50.457Z,31.33
2023-02-06T03:51:08.570Z,31.01
2023-02-06T03:55:23.770Z,31.02
2023-02-06T03:59:36.315Z,31.27
2023-02-06T04:03:49.738Z,30.23
2023-02-06T04:08:02.122Z,30.47
2023-02-06T04:12:15.716Z,31.07
2023-02-06T04:16:28.160Z,30.76
2023-02-06T04:20:41.191Z,30.02
2023-02-06T04:24:53.529Z,30.64
2023-02-06T04:29:06.184Z,30.61
2023-02-06T04:33:18.811Z,31.47
2023-02-06T04:37:31.240Z,31.42
2023-02-06T04:41:43.503Z,30.47
2023-02-06T04:45:55.858Z,30.90
2023-02-06T04:50:08.729Z,30.38
2023-02-06T04:54:20.972Z,30.41
2023-02-06T04:58:34.313Z,31.36
2023-02-06T05:02:46.778Z,29.98
2023-02-06T05:06:59.007Z,30.93
2023-02-06T05:11:11.539Z,31.37
2023-02-06T05:15:23.877Z,31.78
2023-02-06T05:19:36.292Z,32.00
2023-02-06T05:23:48.600Z,32.16
2023-02-06T05:28:00.980Z,31.77
2023-02-06T05:32:13.399Z,31.53
2023-02-06T05:36:25.931Z,32.06
2023-02-06T05:40:39.343Z,31.03
2023-02-06T05:44:51.695Z,31.02
2023-02-06T05:49:05.377Z,31.05
2023-02-06T05:53:18.139Z,31.22
2023-02-06T05:57:30.434Z,31.33
2023-02-06T06:01:42.888Z,31.96
2023-02-06T06:05:56.014Z,31.26
2023-02-06T06:10:09.275Z,31.17
2023-02-06T06:14:21.888Z,32.27
2023-02-06T06:18:35.582Z,31.97
2023-02-06T06:22:48.045Z,32.66
2023-02-06T06:27:00.433Z,31.48
2023-02-06T06:31:13.545Z,31.65
2023-02-06T06:35:27.247Z,32.49
2023-02-06T06:39:39.720Z,33.33
2023-02-06T06:43:54.844Z,32.45
2023-02-06T06:48:07.242Z,32.69
2023-02-06T06:52:24.984Z,34.10
2023-02-06T06:56:38.126Z,32.54
2023-02-06T07:00:53.940Z,32.69
2023-02-06T07:05:07.416Z,29.33
2023-02-06T07:09:19.786Z,29.83
2023-02-06T07:13:32.152Z,30.49
2023-02-06T07:17:44.465Z,31.81
2023-02-06T07:21:56.914Z,32.50
2023-02-06T07:26:10.922Z,32.06
2023-02-06T07:30:23.645Z,33.31
2023-02-06T07:34:36.331Z,31.54
2023-02-06T07:38:49.145Z,30.44
2023-02-06T07:43:01.534Z,28.47
2023-02-06T07:47:19.648Z,27.83
2023-02-06T07:51:32.058Z,28.34
2023-02-06T07:55:44.439Z,29.25
2023-02-06T07:59:56.751Z,29.22
2023-02-06T08:04:09.334Z,28.68
2023-02-06T08:08:21.697Z,27.34
2023-02-06T08:12:34.002Z,25.30
2023-02-06T08:16:46.618Z,25.69
2023-02-06T08:21:06.289Z,25.03
2023-02-06T08:25:18.718Z,25.32
2023-02-06T08:29:32.480Z,24.98
2023-02-06T08:33:45.786Z,24.15
2023-02-06T08:38:01.209Z,25.32
2023-02-06T08:42:13.733Z,25.86
2023-02-06T08:46:29.900Z,25.65
2023-02-06T08:50:44.835Z,24.92
2023-02-06T08:54:57.401Z,24.63
2023-02-06T08:59:11.200Z,24.15
2023-02-06T09:03:23.569Z,24.09
2023-02-06T09:07:35.948Z,23.77
2023-02-06T09:11:48.418Z,23.80
2023-02-06T09:16:00.906Z,23.50
2023-02-06T09:20:13.621Z,23.59
2023-02-06T09:24:27.560Z,23.98
2023-02-06T09:28:40.226Z,23.18
2023-02-06T09:32:52.689Z,23.66
2023-02-06T09:37:06.395Z,24.05
2023-02-06T09:41:31.533Z,23.50
2023-02-06T09:45:43.945Z,25.03
2023-02-06T09:50:25.441Z,25.69
2023-02-06T09:55:07.197Z,28.60
2023-02-06T09:59:45.278Z,23.99
2023-02-06T10:04:25.715Z,22.88
2023-02-06T10:08:43.537Z,23.28
2023-02-06T10:13:05.493Z,24.73
2023-02-06T10:17:32.966Z,24.31
2023-02-06T10:22:03.940Z,23.52
2023-02-06T10:26:18.689Z,23.21
2023-02-06T10:31:09.388Z,23.65
2023-02-06T10:36:11.171Z,22.51
2023-02-06T10:40:41.951Z,22.50
2023-02-06T10:45:19.252Z,22.50
2023-02-06T10:49:41.133Z,22.88
2023-02-06T10:54:04.905Z,23.93
2023-02-06T10:58:30.772Z,23.33
2023-02-06T11:03:06.636Z,22.07
2023-02-06T11:07:46.841Z,21.49
2023-02-06T11:12:01.448Z,21.60
2023-02-06T11:16:26.172Z,22.29
2023-02-06T11:20:42.110Z,23.34
2023-02-06T11:25:01.130Z,22.29
2023-02-06T11:29:37.294Z,21.60
2023-02-06T11:33:57.142Z,21.68
2023-02-06T11:38:21.639Z,22.12
2023-02-06T11:42:36.591Z,20.97
2023-02-06T11:46:49.095Z,21.74
2023-02-06T11:51:02.296Z,21.04
2023-02-06T11:55:26.936Z,20.90
2023-02-06T11:59:54.200Z,21.81
2023-02-06T12:04:23.946Z,21.73
2023-02-06T12:08:48.623Z,21.20
2023-02-06T12:13:20.463Z,21.66
2023-02-06T12:17:47.548Z,20.98
2023-02-06T12:22:18.264Z,19.44
2023-02-06T12:26:33.998Z,18.92
2023-02-06T12:30:55.937Z,16.76
2023-02-06T12:35:34.612Z,16.32
2023-02-06T12:39:48.469Z,17.63
2023-02-06T12:44:18.163Z,20.30
2023-02-06T12:48:44.695Z,20.48
2023-02-06T12:53:05.172Z,20.83
2023-02-06T12:57:28.529Z,21.82
2023-02-06T13:01:53.275Z,21.61
2023-02-06T13:06:19.067Z,21.66
2023-02-06T13:10:31.385Z,21.35
2023-02-06T13:14:50.726Z,22.02
2023-02-06T13:19:03.870Z,22.22
2023-02-06T13:23:16.746Z,23.43
2023-02-06T13:27:39.867Z,23.41
2023-02-06T13:32:11.334Z,23.09
2023-02-06T13:36:53.662Z,22.98
2023-02-06T13:41:16.042Z,23.40
2023-02-06T13:45:51.168Z,22.96
2023-02-06T13:50:47.871Z,23.34
2023-02-06T13:55:14.840Z,23.95
2023-02-06T13:59:34.977Z,23.20
2023-02-06T14:03:48.834Z,23.62
2023-02-06T14:08:20.680Z,23.76
2023-02-06T14:12:44.769Z,24.04
2023-02-06T14:17:28.896Z,25.28
2023-02-06T14:21:57.031Z,24.59
2023-02-06T14:26:16.416Z,24.80
2023-02-06T14:30:54.010Z,24.85
2023-02-06T14:35:31.500Z,39.94
2023-02-06T14:39:49.627Z,25.43
2023-02-06T14:44:02.570Z,25.13
2023-02-06T14:48:31.024Z,26.03
2023-02-06T14:52:45.890Z,26.36
2023-02-06T14:57:29.656Z,26.16
2023-02-06T15:01:44.288Z,26.23
2023-02-06T15:06:07.719Z,26.48
2023-02-06T15:10:29.045Z,26.67
2023-02-06T15:14:58.015Z,27.57
2023-02-06T15:19:21.933Z,28.00
2023-02-06T15:23:56.094Z,29.36
2023-02-06T15:28:23.326Z,27.97
2023-02-06T15:32:40.055Z,28.46
2023-02-06T15:36:54.204Z,28.84
2023-02-06T15:41:08.885Z,29.23
2023-02-06T15:45:29.164Z,29.24
2023-02-06T15:49:44.479Z,29.08
2023-02-06T15:54:21.596Z,29.64
2023-02-06T15:58:34.988Z,29.24
2023-02-06T16:02:47.500Z,29.08
2023-02-06T16:07:24.829Z,30.41
2023-02-06T16:11:46.450Z,29.90
2023-02-06T16:16:17.220Z,30.78
2023-02-06T16:20:32.589Z,31.76
2023-02-06T16:24:45.582Z,30.49
2023-02-06T16:29:16.691Z,31.60
2023-02-06T16:33:39.809Z,32.62
2023-02-06T16:37:54.886Z,32.95
2023-02-06T16:42:07.496Z,34.32
2023-02-06T16:46:23.704Z,32.66
2023-02-06T16:50:37.302Z,32.05
2023-02-06T16:54:50.446Z,31.02
2023-02-06T16:59:02.726Z,32.02
2023-02-06T17:03:17.616Z,30.93
2023-02-06T17:07:32.103Z,30.90
2023-02-06T17:11:44.570Z,32.11
2023-02-06T17:15:56.954Z,32.33
2023-02-06T17:20:31.144Z,31.76
2023-02-06T17:24:44.199Z,31.72
2023-02-06T17:28:56.523Z,33.52
2023-02-06T17:33:09.561Z,32.94
2023-02-06T17:37:22.017Z,32.39
2023-02-06T17:41:36.634Z,32.82
2023-02-06T17:45:49.896Z,33.41
2023-02-06T17:50:02.396Z,34.29
2023-02-06T17:54:15.792Z,33.43
2023-02-06T17:58:29.685Z,33.47
2023-02-06T18:02:43.491Z,32.88
2023-02-06T18:06:55.941Z,33.53
2023-02-06T18:11:22.185Z,33.80
2023-02-06T18:15:34.610Z,34.46
2023-02-06T18:19:48.664Z,33.02
2023-02-06T18:24:00.970Z,33.23
2023-02-06T18:28:17.875Z,32.92
2023-02-06T18:32:30.903Z,33.92
2023-02-06T18:36:43.248Z,34.36
2023-02-06T18:40:55.709Z,34.51
2023-02-06T18:45:08.851Z,36.02
2023-02-06T18:49:21.840Z,36.85
2023-02-06T18:53:34.206Z,36.90
2023-02-06T18:57:46.744Z,35.19
2023-02-06T19:01:59.176Z,36.57
2023-02-06T19:06:17.568Z,35.90
2023-02-06T19:10:30.105Z,35.24
2023-02-06T19:14:42.499Z,36.33
2023-02-06T19:18:54.897Z,36.07
2023-02-06T19:23:07.208Z,35.86
2023-02-06T19:27:23.915Z,34.67
2023-02-06T19:31:39.341Z,33.95
2023-02-06T19:35:52.561Z,34.31
2023-02-06T19:40:06.614Z,35.40
2023-02-06T19:44:19.728Z,36.79
2023-02-06T19:48:32.655Z,38.96
2023-02-06T19:52:45.257Z,39.67
2023-02-06T19:57:00.810Z,40.60
2023-02-06T20:01:16.043Z,39.92
2023-02-06T20:05:28.542Z,39.94
2023-02-06T20:09:49.570Z,39.69
2023-02-06T20:14:02.294Z,39.78
2023-02-06T20:18:15.051Z,39.11
2023-02-06T20:22:27.750Z,39.44
2023-02-06T20:26:42.899Z,39.38
2023-02-06T20:30:55.398Z,38.90
2023-02-06T20:35:07.990Z,38.29
2023-02-06T20:39:21.254Z,39.21
2023-02-06T20:43:34.484Z,39.25
2023-02-06T20:47:47.669Z,38.66
2023-02-06T20:52:00.136Z,39.89
2023-02-06T20:56:15.592Z,40.40
2023-02-06T21:00:28.153Z,41.20
2023-02-06T21:04:40.632Z,40.85
2023-02-06T21:08:57.594Z,40.20
2023-02-06T21:13:09.956Z,40.09
2023-02-06T21:17:22.201Z,40.96
2023-02-06T21:21:35.485Z,40.34
2023-02-06T21:25:55.396Z,41.10
2023-02-06T21:30:08.980Z,41.23
2023-02-06T21:34:23.895Z,41.21
2023-02-06T21:38:37.010Z,41.19
2023-02-06T21:42:49.853Z,41.73
2023-02-06T21:47:02.183Z,40.53
2023-02-06T21:51:16.975Z,40.48
2023-02-06T21:55:32.897Z,41.15
2023-02-06T21:59:46.101Z,40.51
2023-02-06T22:03:59.064Z,42.06
2023-02-06T22:08:11.615Z,43.89
2023-02-06T22:12:23.952Z,43.75
2023-02-06T22:16:36.959Z,43.49
2023-02-06T22:20:49.353Z,44.02
2023-02-06T22:25:01.764Z,43.80
2023-02-06T22:29:16.284Z,42.33
2023-02-06T22:33:28.566Z,43.49
2023-02-06T22:37:43.067Z,42.37
2023-02-06T22:41:56.575Z,41.23
2023-02-06T22:46:09.888Z,40.47
2023-02-06T22:50:22.565Z,41.03
2023-02-06T22:54:34.953Z,39.55
2023-02-06T22:58:48.660Z,40.04
2023-02-06T23:03:01.026Z,39.01
2023-02-06T23:07:13.335Z,40.32
2023-02-06T23:11:26.212Z,40.82
2023-02-06T23:15:41.899Z,40.49
2023-02-06T23:19:54.472Z,41.30
2023-02-06T23:24:08.613Z,41.59
2023-02-06T23:28:22.520Z,42.80
2023-02-06T23:32:34.876Z,42.06
2023-02-06T23:36:47.679Z,42.26
2023-02-06T23:41:09.063Z,42.48
2023-02-06T23:45:21.595Z,42.65
2023-02-06T23:49:34.110Z,42.00
2023-02-06T23:53:47.359Z,40.57
2023-02-06T23:57:59.838Z,41.16
